Asherville, Indiana
Current Conditions -  °F | °C
As of 3:53 AM on Sunday 23 Nov 2014 (Local Time) from KHUF Reporting Station
Few Clouds Few Clouds  
Wind Chill: 45°   Ceiling: Unl
Heat Index: 49°   Visibility: 10mi
Dew Point: 39°   Wind: 10mph
Humidity: 69%   Direction: 170°S
Pressure: 29.91"   Gusts: NA
Location:  39.5158°N, 87.1262°W
Report Text: KHUF 230853Z 17009KT 10SM FEW095 09/04 A2991 RMK AO2 SLP128 T00940039 56019
Loading
Personal Weather Stations






























Interactive Weather Map New forecast layout! Learn more

10-Day Weather Forecast

Advertisements
Track Severe Weather on mobile